Time;durP1;ratioP1;P1;durP2;ratioP2;P2;SDS_P1;SDS_P2;PMS_P1;PMS_P2;Temp;Humidity;BMP_temperature;BMP_pressure;BME280_temperature;BME280_humidity;BME280_pressure;Samples;Min_cycle;Max_cycle;Signal;HPM_P1;HPM_P2
2023/07/06 00:06:45;;;;;;;;;;;;;;;14.41;86.32;101456.56;20704506;28;19921;-62
2023/07/06 00:17:10;;;;;;;;;;;;;;;14.36;86.52;101470.66;20697621;28;20366;-62
2023/07/06 00:27:33;;;;;;;;;;;;;;;14.26;86.88;101480.53;20718197;28;20367;-62
2023/07/06 00:37:54;;;;;;;;;;;;;;;14.18;87.04;101482.53;20739540;28;19921;-62
2023/07/06 00:48:27;;;;;;;;;;;;;;;14.08;87.39;101476.78;20737980;28;19933;-62
2023/07/06 00:58:50;;;;;;;7.45;3.25;;;;;;;14.07;86.75;101484.66;20700545;28;20011;-62
2023/07/06 01:09:12;;;;;;;6.47;3.25;;;;;;;14.05;87.15;101494.25;20707595;28;20056;-62
2023/07/06 01:20:05;;;;;;;9.65;3.33;;;;;;;13.95;88.20;101498.09;20707088;28;20044;-62
2023/07/06 01:30:51;;;;;;;9.35;3.97;;;;;;;13.90;88.36;101512.97;20710301;28;20321;-62
2023/07/06 01:41:14;;;;;;;6.45;4.05;;;;;;;13.82;89.33;101520.19;20699614;28;20108;-62
2023/07/06 01:52:08;;;;;;;8.88;4.30;;;;;;;13.77;89.80;101524.72;20709050;28;20039;-62
2023/07/06 02:02:30;;;;;;;10.23;4.88;;;;;;;13.81;91.06;101521.09;20705871;28;20097;-62
2023/07/06 02:12:52;;;;;;;20.33;5.38;;;;;;;13.80;90.50;101529.81;20698570;28;20092;-62
2023/07/06 02:23:14;;;;;;;11.02;5.40;;;;;;;13.76;91.04;101523.00;20705556;28;20053;-62
2023/07/06 02:33:35;;;;;;;11.43;5.90;;;;;;;13.70;91.64;101524.03;20710258;28;20034;-62
2023/07/06 02:43:57;;;;;;;9.82;5.97;;;;;;;13.72;91.96;101521.38;20727696;28;20045;-62
2023/07/06 02:54:20;;;;;;;11.38;6.45;;;;;;;13.60;91.49;101530.44;20700778;28;20060;-62
2023/07/06 03:04:42;;;;;;;14.23;6.50;;;;;;;13.56;91.78;101531.44;20733160;28;20049;-62
2023/07/06 03:15:13;;;;;;;13.02;7.18;;;;;;;13.50;92.05;101533.34;20708678;28;20042;-62
2023/07/06 03:25:34;;;;;;;12.70;8.30;;;;;;;13.85;86.29;101549.56;20732249;28;24459;-62
2023/07/06 03:35:58;;;;;;;10.60;7.97;;;;;;;13.97;86.40;101549.16;20697386;28;24421;-62
2023/07/06 03:46:20;;;;;;;13.57;7.90;;;;;;;14.14;86.39;101546.00;20692604;28;25183;-62
2023/07/06 03:56:42;;;;;;;10.60;7.40;;;;;;;14.30;86.35;101562.88;20705350;28;24435;-62
2023/07/06 04:07:07;;;;;;;11.30;7.30;;;;;;;14.43;85.93;101569.34;20705903;28;25260;-62
2023/07/06 04:17:28;;;;;;;10.40;7.23;;;;;;;14.51;86.30;101580.38;20729866;28;24575;-62
2023/07/06 04:27:52;;;;;;;10.03;7.10;;;;;;;14.57;86.38;101582.78;20714094;28;24985;-62
2023/07/06 04:38:14;;;;;;;10.43;7.47;;;;;;;14.67;86.09;101589.34;20738918;28;24535;-62
2023/07/06 04:48:36;;;;;;;12.07;8.10;;;;;;;14.75;86.19;101594.31;20710390;28;24427;-62
2023/07/06 04:58:57;;;;;;;11.57;7.80;;;;;;;14.81;86.43;101607.13;20737946;28;24444;-62
2023/07/06 05:09:19;;;;;;;11.77;8.20;;;;;;;14.82;86.12;101604.47;20708459;28;24427;-62
2023/07/06 05:19:45;;;;;;;10.67;8.70;;;;;;;14.90;86.35;101592.03;20712634;28;24510;-62
2023/07/06 05:30:08;;;;;;;12.70;8.70;;;;;;;15.16;86.35;101605.88;20711885;28;24751;-62
2023/07/06 05:40:29;;;;;;;13.33;8.97;;;;;;;15.28;86.26;101592.38;20706374;28;24889;-62
2023/07/06 05:50:51;;;;;;;14.97;9.30;;;;;;;15.52;86.50;101604.53;20702112;28;24436;-62
2023/07/06 06:01:12;;;;;;;13.13;8.80;;;;;;;15.73;86.16;101612.38;20709201;28;25022;-63
2023/07/06 06:11:34;;;;;;;13.05;9.18;;;;;;;15.99;86.18;101619.19;20754416;28;24532;-63
2023/07/06 06:21:56;;;;;;;16.67;10.25;;;;;;;16.11;86.20;101634.41;20718786;28;24448;-63
2023/07/06 06:32:17;;;;;;;14.43;9.93;;;;;;;16.23;86.29;101643.47;20700942;28;24464;-63
2023/07/06 06:42:39;;;;;;;16.13;9.70;;;;;;;16.33;86.50;101650.91;20699476;28;24444;-63
2023/07/06 06:53:02;;;;;;;16.02;9.27;;;;;;;16.14;90.23;101660.38;20714336;28;20089;-63
2023/07/06 07:03:23;;;;;;;;;;;;;;;16.22;89.36;101663.53;20716865;28;20534;-62
2023/07/06 07:13:46;;;;;;;;;;;;;;;16.29;90.58;101675.44;20714547;28;19921;-63
2023/07/06 07:24:08;;;;;;;;;;;;;;;16.39;89.74;101676.75;20706081;28;19925;-63
2023/07/06 07:34:30;;;;;;;;;;;;;;;16.65;90.19;101683.56;20718269;28;19921;-63
2023/07/06 07:44:51;;;;;;;;;;;;;;;16.95;88.53;101682.31;20731569;28;20414;-63
2023/07/06 07:55:14;;;;;;;;;;;;;;;17.40;87.29;101687.28;20729957;28;19929;-62
2023/07/06 08:05:39;;;;;;;;;;;;;;;17.78;85.26;101689.06;20742768;28;19921;-63
2023/07/06 08:16:01;;;;;;;;;;;;;;;18.15;82.01;101689.03;20727633;28;20015;-63
2023/07/06 08:26:23;;;;;;;;;;;;;;;18.37;79.85;101694.94;20717806;28;19921;-63
2023/07/06 08:36:45;;;;;;;;;;;;;;;18.77;76.99;101694.72;20720922;28;19921;-63
2023/07/06 08:47:09;;;;;;;;;;;;;;;18.56;78.96;101698.44;20720574;28;20375;-63
2023/07/06 08:57:30;;;;;;;;;;;;;;;18.47;75.81;101725.09;20730351;28;19925;-63
2023/07/06 09:07:53;;;;;;;7.70;3.42;;;;;;;18.67;76.54;101713.63;20719405;28;19925;-63
2023/07/06 09:18:15;;;;;;;8.43;3.22;;;;;;;18.58;77.59;101728.03;20717609;28;20174;-63
2023/07/06 09:28:37;;;;;;;10.25;3.97;;;;;;;18.81;77.17;101730.38;20727191;28;20443;-63
2023/07/06 09:39:04;;;;;;;15.98;3.70;;;;;;;18.86;75.76;101741.47;20712705;28;20420;-63
2023/07/06 09:49:55;;;;;;;6.20;2.45;;;;;;;19.47;72.81;101738.38;20716582;28;20050;-63
2023/07/06 10:00:22;;;;;;;6.20;2.25;;;;;;;19.85;71.87;101734.59;20723384;28;20072;-63
2023/07/06 10:11:12;;;;;;;4.00;1.88;;;;;;;20.60;66.92;101732.16;20711414;28;20050;-63
2023/07/06 10:21:43;;;;;;;8.60;2.47;;;;;;;20.87;68.72;101735.84;20711910;28;20137;-63
2023/07/06 10:32:09;;;;;;;;;;;;;;;21.01;63.05;101738.53;20710661;28;20045;-63
2023/07/06 10:42:32;;;;;;;5.55;1.95;;;;;;;20.80;69.41;101731.88;20730826;28;20010;-62
2023/07/06 10:53:24;;;;;;;2.33;1.50;;;;;;;21.11;57.08;101749.38;20708737;28;20061;-61
2023/07/06 11:03:46;;;;;;;5.40;1.80;;;;;;;21.72;66.82;101747.34;20752847;28;20149;-62
2023/07/06 11:14:45;;;;;;;4.35;1.60;;;;;;;21.66;60.17;101750.41;20720016;28;20112;-62
2023/07/06 11:25:11;;;;;;;3.08;1.73;;;;;;;22.26;57.42;101759.78;20704664;28;20061;-62
2023/07/06 11:36:16;;;;;;;4.07;1.90;;;;;;;22.61;56.52;101755.75;20704400;28;20052;-61
2023/07/06 11:46:47;;;;;;;5.43;2.00;;;;;;;22.43;62.69;101770.13;20691985;28;20050;-62
2023/07/06 11:57:41;;;;;;;4.43;1.75;;;;;;;21.86;59.29;101776.41;20703001;28;20038;-62
2023/07/06 12:08:27;;;;;;;3.45;1.50;;;;;;;21.32;60.48;101791.09;20717043;28;20080;-62
2023/07/06 12:18:58;;;;;;;11.02;2.20;;;;;;;21.02;63.53;101809.50;20730708;28;20541;-62
2023/07/06 12:29:27;;;;;;;7.10;2.80;;;;;;;20.11;72.23;101841.78;20712116;28;20046;-61
2023/07/06 12:39:50;;;;;;;5.88;2.50;;;;;;;19.31;75.26;101830.22;20723765;28;20057;-61
2023/07/06 12:50:16;;;;;;;4.80;2.47;;;;;;;19.33;76.15;101832.78;20752911;28;20044;-62
2023/07/06 13:00:38;;;;;;;4.97;2.25;;;;;;;19.82;73.69;101816.19;20700228;28;20100;-62
2023/07/06 13:11:03;;;;;;;5.78;2.33;;;;;;;20.30;69.77;101818.88;20729714;28;20054;-62
2023/07/06 13:21:26;;;;;;;5.05;2.42;;;;;;;20.40;69.17;101827.13;20714614;28;20447;-62
2023/07/06 13:31:51;;;;;;;4.47;2.28;;;;;;;20.34;69.90;101835.34;20691293;28;20610;-63
2023/07/06 13:42:21;;;;;;;5.68;2.50;;;;;;;20.25;71.03;101841.94;20721918;28;20034;-63
2023/07/06 13:52:43;;;;;;;8.82;2.55;;;;;;;20.38;69.33;101840.31;20713688;28;20062;-63
2023/07/06 14:03:05;;;;;;;6.57;2.40;;;;;;;20.69;67.73;101832.44;20712934;28;20054;-63
2023/07/06 14:13:27;;;;;;;8.43;2.38;;;;;;;20.85;69.19;101838.56;20712143;28;20133;-63
2023/07/06 14:23:51;;;;;;;5.88;2.05;;;;;;;21.04;68.38;101843.66;20709364;28;20038;-63
2023/07/06 14:34:13;;;;;;;5.78;2.22;;;;;;;21.07;68.87;101843.47;20730001;28;20073;-63
2023/07/06 14:44:37;;;;;;;6.22;2.50;;;;;;;21.23;68.82;101841.66;20708013;28;20046;-63
2023/07/06 14:54:59;;;;;;;6.97;2.40;;;;;;;21.47;68.20;101842.00;20710718;28;20136;-63
2023/07/06 15:05:20;;;;;;;5.18;2.10;;;;;;;21.49;67.97;101848.88;20703591;28;20492;-63
2023/07/06 15:15:42;;;;;;;5.07;2.15;;;;;;;21.49;64.74;101845.41;20739177;28;20751;-63
2023/07/06 15:26:05;;;;;;;7.13;2.10;;;;;;;21.39;68.12;101844.25;20697973;28;20050;-63
2023/07/06 15:36:27;;;;;;;10.25;2.35;;;;;;;21.78;68.07;101841.88;20716981;28;20136;-63
2023/07/06 15:46:49;;;;;;;5.22;2.45;;;;;;;22.00;66.85;101831.75;20706233;28;20049;-63
2023/07/06 15:57:11;;;;;;;4.78;2.30;;;;;;;21.93;66.76;101841.00;20706550;28;20052;-63
2023/07/06 16:07:33;;;;;;;5.28;2.45;;;;;;;21.68;65.96;101838.94;20705075;28;20042;-63
2023/07/06 16:17:54;;;;;;;5.22;1.92;;;;;;;21.53;66.56;101842.50;20727920;28;20945;-63
2023/07/06 16:28:17;;;;;;;3.83;1.60;;;;;;;21.45;66.71;101843.88;20732206;28;20053;-63
2023/07/06 16:38:38;;;;;;;4.57;2.10;;;;;;;22.21;66.14;101835.72;20715543;28;20061;-63
2023/07/06 16:49:00;;;;;;;6.88;2.70;;;;;;;22.94;63.33;101829.25;20703258;28;20056;-63
2023/07/06 16:59:22;;;;;;;4.78;2.13;;;;;;;23.20;62.72;101832.81;20741570;28;20046;-63
2023/07/06 17:09:43;;;;;;;6.38;2.30;;;;;;;23.28;64.33;101825.22;20704618;28;20054;-64
2023/07/06 17:20:06;;;;;;;7.68;2.30;;;;;;;23.25;64.91;101841.28;20712737;28;20056;-64
2023/07/06 17:30:27;;;;;;;4.75;1.92;;;;;;;23.12;65.71;101840.41;20741322;28;20121;-63
2023/07/06 17:40:56;;;;;;;6.55;2.60;;;;;;;22.93;59.12;101846.88;20727016;28;20718;-64
2023/07/06 17:51:19;;;;;;;6.27;2.23;;;;;;;22.65;62.39;101833.75;20712831;28;20042;-64
2023/07/06 18:01:40;;;;;;;5.05;2.03;;;;;;;22.49;65.57;101850.63;20718003;28;20073;-64
2023/07/06 18:12:02;;;;;;;7.10;2.50;;;;;;;22.33;65.63;101861.31;20705614;28;20124;-64
2023/07/06 18:22:24;;;;;;;7.65;2.42;;;;;;;22.24;65.36;101871.59;20708218;28;20041;-63
2023/07/06 18:32:46;;;;;;;5.47;2.00;;;;;;;22.03;64.51;101863.19;20727651;28;20038;-63
2023/07/06 18:43:08;;;;;;;3.13;1.85;;;;;;;21.83;63.54;101877.59;20722137;28;20050;-64
2023/07/06 18:53:30;;;;;;;7.82;2.40;;;;;;;21.71;64.20;101896.75;20715888;28;20069;-64
2023/07/06 19:04:06;;;;;;;7.82;1.85;;;;;;;21.58;65.59;101897.53;20721712;28;20045;-63
2023/07/06 19:14:28;;;;;;;4.55;2.08;;;;;;;21.39;65.97;101908.31;20714353;28;20048;-64
2023/07/06 19:24:50;;;;;;;6.35;2.10;;;;;;;21.19;67.12;101915.66;20700881;28;20531;-64
2023/07/06 19:35:12;;;;;;;6.68;2.03;;;;;;;20.94;67.98;101930.16;20713700;28;20054;-64
2023/07/06 19:45:34;;;;;;;4.97;2.03;;;;;;;20.62;68.82;101941.59;20734807;28;20041;-64
2023/07/06 19:55:56;;;;;;;5.35;2.60;;;;;;;20.35;68.90;101964.09;20733153;28;20136;-64
2023/07/06 20:06:19;;;;;;;5.25;2.78;;;;;;;20.26;69.90;101980.34;20731196;28;20049;-64
2023/07/06 20:16:40;;;;;;;6.80;2.58;;;;;;;20.04;70.27;101972.69;20738005;28;20050;-64
2023/07/06 20:27:02;;;;;;;3.47;2.20;;;;;;;19.88;71.06;101982.28;20730478;28;20057;-64
2023/07/06 20:37:24;;;;;;;5.47;2.40;;;;;;;19.68;72.35;102003.44;20713561;28;20042;-64
2023/07/06 20:47:45;;;;;;;5.57;2.33;;;;;;;19.49;72.73;102017.50;20748094;28;20145;-64
2023/07/06 20:58:07;;;;;;;3.60;2.08;;;;;;;19.31;73.20;102018.34;20719198;28;20053;-64
2023/07/06 21:08:29;;;;;;;5.68;2.25;;;;;;;19.08;73.95;102020.25;20727486;28;20052;-63
2023/07/06 21:18:51;;;;;;;4.63;2.40;;;;;;;18.85;74.89;102030.97;20727057;28;20084;-64
2023/07/06 21:29:13;;;;;;;4.55;2.40;;;;;;;18.55;76.16;102034.94;20723480;28;20042;-64
2023/07/06 21:39:35;;;;;;;3.17;2.38;;;;;;;18.45;75.78;102041.50;20702435;28;20125;-64
2023/07/06 21:49:57;;;;;;;4.30;2.60;;;;;;;18.33;75.43;102062.94;20729122;28;20046;-64
2023/07/06 22:00:18;;;;;;;3.47;2.83;;;;;;;18.09;76.29;102069.25;20708946;28;20050;-64
2023/07/06 22:10:42;;;;;;;5.70;3.25;;;;;;;17.92;76.89;102066.44;20719641;28;20046;-64
2023/07/06 22:21:05;;;;;;;9.57;4.03;;;;;;;17.86;77.66;102067.53;20708790;28;20065;-64
2023/07/06 22:31:27;;;;;;;6.07;2.78;;;;;;;17.69;78.69;102066.53;20707718;28;20154;-64
2023/07/06 22:41:49;;;;;;;5.82;3.00;;;;;;;17.48;79.43;102072.59;20740841;28;20065;-64
2023/07/06 22:52:12;;;;;;;5.57;3.15;;;;;;;17.27;81.26;102060.31;20706452;28;20136;-64
2023/07/06 23:02:34;;;;;;;8.73;3.25;;;;;;;17.15;81.87;102064.22;20721844;28;20224;-64
2023/07/06 23:12:56;;;;;;;3.60;2.63;;;;;;;17.10;82.82;102063.53;20712643;28;20042;-64
2023/07/06 23:23:18;;;;;;;5.40;3.10;;;;;;;17.02;82.17;102065.56;20701759;28;20069;-64
2023/07/06 23:33:40;;;;;;;4.55;3.30;;;;;;;16.87;83.15;102072.22;20706344;28;20046;-64
2023/07/06 23:44:01;;;;;;;8.90;3.70;;;;;;;16.71;83.70;102073.69;20705581;28;20092;-64
2023/07/06 23:54:23;;;;;;;6.95;3.85;;;;;;;16.65;84.31;102070.41;20703551;28;20202;-64
